Cap Bianco — A8OK5 — position and weather

sailwx.info

Track history (hours):
 
Tides and Currents Weather Stations Pressure Air Temp Water Temp Dewpoint Dewpoint Depression Visibility Wind Speed Wind Dir Waves Ship Positions

Cap Bianco

Last reported at 2014-Oct-31 10:07 UTC. Time now 2014-Oct-31 12:13 UTC.
Position S 35°07' W 056°06'.

Length 222 m; draft 8.9 m.

Type: Cargo ship. MMSI: 636091489.

Date/timePositionNaut miles runAvg speedWind from/ knotsBaromVisibWave heightAir tempDewpointWater temp
2014-Oct-31 10:07S 35°07' W 056°06'2 4.3
2014-Oct-31 09:33S 35°06' W 056°03'  
2014-Oct-29 04:33S 24°13' W 046°26'1414.2
2014-Oct-29 03:33S 23°60' W 046°20'3 2.5
2014-Oct-29 02:31S 23°58' W 046°18'0 0.0
2014-Oct-28 23:31S 23°58' W 046°18'0 0.0
2014-Oct-28 22:31S 23°58' W 046°18'0 0.0
2014-Oct-28 21:28S 23°58' W 046°18'0 0.0
2014-Oct-28 20:31S 23°58' W 046°18'0 0.0
2014-Oct-28 19:31S 23°58' W 046°18'0 0.0
2014-Oct-28 18:28S 23°58' W 046°18'0 0.0
2014-Oct-28 17:28S 23°58' W 046°18'0 0.0
2014-Oct-28 16:31S 23°58' W 046°18'0 0.0
2014-Oct-28 15:31S 23°58' W 046°18'0 0.0
2014-Oct-28 14:31S 23°58' W 046°18'0 0.0
2014-Oct-28 13:31S 23°58' W 046°18'0 0.0
2014-Oct-28 12:31S 23°58' W 046°18'0 0.0
2014-Oct-28 11:25S 23°58' W 046°18'1 1.6
2014-Oct-28 10:33S 23°59' W 046°17'7 6.7
2014-Oct-28 09:33S 24°04' W 046°22'6 2.5
2014-Oct-28 07:19S 24°10' W 046°24'218 5.3
2014-Oct-26 14:32S 27°24' W 048°14'1211.7
2014-Oct-26 13:33S 27°35' W 048°18'1111.4
2014-Oct-26 12:34S 27°46' W 048°21'  
Track history (hours):
 
Tides and Currents Weather Stations Pressure Air Temp Water Temp Dewpoint Dewpoint Depression Visibility Wind Speed Wind Dir Waves Ship Positions

Cap Bianco

Last reported at 2014-Oct-31 10:07 UTC. Time now 2014-Oct-31 12:13 UTC.
Position S 35°07' W 056°06'.

Length 222 m; draft 8.9 m.

Type: Cargo ship. MMSI: 636091489.

Date/timePositionNaut miles runAvg speedWind from/ knotsBaromVisibWave heightAir tempDewpointWater temp
2014-Oct-31 10:07S 35°07' W 056°06'2 4.3
2014-Oct-31 09:33S 35°06' W 056°03'  
2014-Oct-29 04:33S 24°13' W 046°26'1414.2
2014-Oct-29 03:33S 23°60' W 046°20'3 2.5
2014-Oct-29 02:31S 23°58' W 046°18'0 0.0
2014-Oct-28 23:31S 23°58' W 046°18'0 0.0
2014-Oct-28 22:31S 23°58' W 046°18'0 0.0
2014-Oct-28 21:28S 23°58' W 046°18'0 0.0
2014-Oct-28 20:31S 23°58' W 046°18'0 0.0
2014-Oct-28 19:31S 23°58' W 046°18'0 0.0
2014-Oct-28 18:28S 23°58' W 046°18'0 0.0
2014-Oct-28 17:28S 23°58' W 046°18'0 0.0
2014-Oct-28 16:31S 23°58' W 046°18'0 0.0
2014-Oct-28 15:31S 23°58' W 046°18'0 0.0
2014-Oct-28 14:31S 23°58' W 046°18'0 0.0
2014-Oct-28 13:31S 23°58' W 046°18'0 0.0
2014-Oct-28 12:31S 23°58' W 046°18'0 0.0
2014-Oct-28 11:25S 23°58' W 046°18'1 1.6
2014-Oct-28 10:33S 23°59' W 046°17'7 6.7
2014-Oct-28 09:33S 24°04' W 046°22'6 2.5
2014-Oct-28 07:19S 24°10' W 046°24'218 5.3
2014-Oct-26 14:32S 27°24' W 048°14'1211.7
2014-Oct-26 13:33S 27°35' W 048°18'1111.4
2014-Oct-26 12:34S 27°46' W 048°21'  

Dump ship's entire track history